Time;durP1;ratioP1;P1;durP2;ratioP2;P2;SDS_P1;SDS_P2;PMS_P1;PMS_P2;Temp;Humidity;BMP_temperature;BMP_pressure;BME280_temperature;BME280_humidity;BME280_pressure;Samples;Min_cycle;Max_cycle;Signal;HPM_P1;HPM_P2
2022/03/09 00:00:07;;;;;;;67.05;32.83;;;;;;;-4.35;100.00;90591.63;5052911;28;20029;-63
2022/03/09 00:02:32;;;;;;;74.10;33.95;;;;;;;-4.34;100.00;90590.59;5054091;28;20075;-63
2022/03/09 00:04:58;;;;;;;70.93;33.53;;;;;;;-4.32;100.00;90585.19;5053941;28;20120;-63
2022/03/09 00:07:26;;;;;;;72.40;33.35;;;;;;;-4.34;100.00;90590.59;5054062;28;20085;-63
2022/03/09 00:09:51;;;;;;;65.68;29.83;;;;;;;-4.27;100.00;90588.66;5054008;28;20048;-63
2022/03/09 00:12:17;;;;;;;67.55;30.40;;;;;;;-4.25;100.00;90588.47;5053962;28;20434;-63
2022/03/09 00:14:42;;;;;;;65.75;31.25;;;;;;;-4.31;100.00;90586.75;5053837;28;20032;-62
2022/03/09 00:17:08;;;;;;;61.05;29.60;;;;;;;-4.33;100.00;90586.19;5036009;28;20067;-63
2022/03/09 00:19:33;;;;;;;62.88;28.90;;;;;;;-4.34;100.00;90585.41;5053811;28;20082;-63
2022/03/09 00:21:59;;;;;;;58.40;26.73;;;;;;;-4.41;100.00;90581.38;5053775;28;20044;-63
2022/03/09 00:24:24;;;;;;;53.10;26.58;;;;;;;-4.39;100.00;90585.31;5053557;28;20032;-63
2022/03/09 00:26:50;;;;;;;54.15;26.35;;;;;;;-4.36;100.00;90574.47;5053515;28;20442;-62
2022/03/09 00:29:15;;;;;;;50.63;25.45;;;;;;;-4.34;100.00;90572.44;5053604;28;20027;-62
2022/03/09 00:31:41;;;;;;;57.20;28.10;;;;;;;-4.30;100.00;90573.53;5053555;28;20044;-62
2022/03/09 00:34:06;;;;;;;64.60;30.27;;;;;;;-4.28;100.00;90562.94;5053461;28;20024;-62
2022/03/09 00:36:32;;;;;;;54.10;27.50;;;;;;;-4.28;100.00;90568.13;5052702;28;20029;-63
2022/03/09 00:38:57;;;;;;;53.55;25.52;;;;;;;-4.32;100.00;90565.19;5053529;28;20045;-62
2022/03/09 00:41:23;;;;;;;54.70;26.30;;;;;;;-4.32;100.00;90559.22;5206542;22;20053;-63
2022/03/09 00:43:48;;;;;;;61.83;26.77;;;;;;;-4.39;100.00;90569.75;5012349;28;20539;-62
2022/03/09 00:46:14;;;;;;;55.60;27.50;;;;;;;-4.36;100.00;90561.50;5013609;28;20237;-62
2022/03/09 00:48:39;;;;;;;59.83;29.33;;;;;;;-4.30;100.00;90563.16;5013687;28;20057;-62
2022/03/09 00:51:05;;;;;;;62.58;29.48;;;;;;;-4.42;100.00;90559.78;5013549;28;20443;-62
2022/03/09 00:53:31;;;;;;;64.72;31.08;;;;;;;-4.49;100.00;90564.31;5013358;28;20088;-62
2022/03/09 00:55:56;;;;;;;59.50;29.48;;;;;;;-4.48;100.00;90565.13;5013473;28;20038;-62
2022/03/09 00:58:22;;;;;;;57.95;27.70;;;;;;;-4.48;100.00;90562.53;5013423;28;20550;-62
2022/03/09 01:00:48;;;;;;;66.82;30.35;;;;;;;-4.41;100.00;90568.41;5013387;28;20079;-62
2022/03/09 01:03:14;;;;;;;62.67;30.45;;;;;;;-4.46;100.00;90563.06;5013503;28;20048;-62
2022/03/09 01:05:39;;;;;;;64.13;29.63;;;;;;;-4.59;100.00;90559.69;5013200;28;20026;-62
2022/03/09 01:08:05;;;;;;;78.13;35.10;;;;;;;-4.67;100.00;90560.06;5013286;28;20026;-62
2022/03/09 01:10:30;;;;;;;70.40;31.05;;;;;;;-4.63;100.00;90548.19;4995593;28;20032;-62
2022/03/09 01:12:56;;;;;;;64.25;29.05;;;;;;;-4.64;100.00;90553.63;5013379;28;20030;-62
2022/03/09 01:15:21;;;;;;;68.43;30.88;;;;;;;-4.69;100.00;90549.13;5013042;28;20483;-62
2022/03/09 01:17:47;;;;;;;68.93;31.25;;;;;;;-4.71;100.00;90553.75;5013147;28;20026;-62
2022/03/09 01:20:12;;;;;;;69.30;33.55;;;;;;;-4.77;100.00;90549.44;5012995;28;20427;-61
2022/03/09 01:22:39;;;;;;;70.35;31.52;;;;;;;-4.85;100.00;90547.22;5012853;28;20112;-62
2022/03/09 01:25:05;;;;;;;67.93;31.80;;;;;;;-4.80;100.00;90544.72;5012837;28;20033;-62
2022/03/09 01:27:30;;;;;;;71.85;33.95;;;;;;;-4.80;100.00;90544.72;5012919;28;20037;-62
2022/03/09 01:29:55;;;;;;;66.03;30.23;;;;;;;-4.78;100.00;90545.28;5012860;28;20026;-62
2022/03/09 01:32:21;;;;;;;67.20;28.95;;;;;;;-4.77;100.00;90553.84;5012709;28;20040;-62
2022/03/09 01:34:48;;;;;;;64.63;27.55;;;;;;;-4.77;100.00;90546.84;5012966;28;20030;-62
2022/03/09 01:37:13;;;;;;;60.53;26.60;;;;;;;-4.78;100.00;90558.25;5012661;28;20104;-63
2022/03/09 01:39:39;;;;;;;60.88;27.88;;;;;;;-4.83;100.00;90547.78;5012658;28;20052;-62
2022/03/09 01:42:04;;;;;;;59.78;28.83;;;;;;;-4.89;100.00;90546.06;5012284;28;20057;-62
2022/03/09 01:44:30;;;;;;;60.65;27.38;;;;;;;-4.93;100.00;90555.31;5012630;28;20104;-62
2022/03/09 01:46:55;;;;;;;56.55;26.48;;;;;;;-4.93;100.00;90548.31;5012430;28;20028;-62
2022/03/09 01:49:22;;;;;;;57.55;26.55;;;;;;;-4.84;100.00;90544.38;5011659;28;20511;-62
2022/03/09 01:51:50;;;;;;;53.80;24.23;;;;;;;-4.71;100.00;90545.19;5012271;28;20045;-62
2022/03/09 01:54:16;;;;;;;53.85;25.63;;;;;;;-4.77;100.00;90541.66;5012607;28;20038;-62
2022/03/09 01:56:42;;;;;;;50.05;24.67;;;;;;;-4.77;100.00;90546.84;4994654;28;20037;-62
2022/03/09 01:59:09;;;;;;;54.13;24.77;;;;;;;-4.74;100.00;90549.00;5012324;28;20026;-62
2022/03/09 02:01:35;;;;;;;49.85;24.73;;;;;;;-4.80;100.00;90547.31;5012102;28;20041;-62
2022/03/09 02:04:02;;;;;;;51.13;24.02;;;;;;;-4.84;100.00;90553.97;5012257;28;20113;-62
2022/03/09 02:06:31;;;;;;;55.63;25.13;;;;;;;-4.97;100.00;90547.19;5012148;28;20034;-62
2022/03/09 02:11:41;;;;;;;52.63;25.48;;;;;;;-4.94;100.00;90541.56;5012262;28;20585;-62
2022/03/09 02:14:25;;;;;;;65.15;28.35;;;;;;;-4.93;100.00;90547.53;5012039;28;20022;-62
2022/03/09 02:16:50;;;;;;;54.72;26.30;;;;;;;-4.85;100.00;90552.41;5012040;28;20177;-62
2022/03/09 02:19:16;;;;;;;61.28;27.52;;;;;;;-4.94;100.00;90557.13;5011931;28;20108;-61
2022/03/09 02:21:43;;;;;;;63.13;29.45;;;;;;;-4.87;100.00;90554.44;5011821;28;20052;-62
2022/03/09 02:24:08;;;;;;;55.35;27.55;;;;;;;-4.82;100.00;90555.31;5011914;28;20053;-62
2022/03/09 02:26:35;;;;;;;67.88;30.92;;;;;;;-4.73;100.00;90555.78;5011762;28;20482;-62
2022/03/09 02:29:00;;;;;;;72.07;32.13;;;;;;;-4.70;100.00;90557.13;5011815;28;20054;-62
2022/03/09 02:31:25;;;;;;;68.50;29.90;;;;;;;-4.70;100.00;90551.94;5011664;28;20072;-62
2022/03/09 02:33:51;;;;;;;58.58;26.30;;;;;;;-4.72;100.00;90554.78;5011730;28;20480;-62
2022/03/09 02:36:16;;;;;;;59.17;26.67;;;;;;;-4.82;100.00;90559.72;5011715;28;20109;-62
2022/03/09 02:38:42;;;;;;;55.25;25.40;;;;;;;-4.80;100.00;90549.13;5011711;28;20018;-62
2022/03/09 02:41:07;;;;;;;58.83;26.80;;;;;;;-4.91;100.00;90555.88;5011869;28;20455;-62
2022/03/09 02:43:32;;;;;;;56.65;26.80;;;;;;;-4.90;100.00;90554.84;5011433;28;20500;-63
2022/03/09 02:45:58;;;;;;;55.38;24.92;;;;;;;-4.96;100.00;90553.19;5011579;28;20472;-61
2022/03/09 02:48:23;;;;;;;54.30;25.85;;;;;;;-4.98;100.00;90566.38;5011579;28;20034;-62
2022/03/09 02:50:48;;;;;;;59.53;27.42;;;;;;;-4.97;100.00;90562.75;5011511;28;20029;-62
2022/03/09 02:53:14;;;;;;;55.65;25.98;;;;;;;-4.98;100.00;90553.41;5011417;28;20117;-61
2022/03/09 02:55:39;;;;;;;55.72;25.00;;;;;;;-4.93;100.00;90565.69;5011366;28;20030;-62
2022/03/09 02:58:05;;;;;;;53.85;25.25;;;;;;;-4.94;100.00;90564.91;5011365;28;20041;-62
2022/03/09 03:00:30;;;;;;;55.65;26.70;;;;;;;-5.00;100.00;90565.81;5011235;28;20480;-62
2022/03/09 03:02:55;;;;;;;55.20;26.40;;;;;;;-5.05;100.00;90568.28;5011244;28;20420;-62
2022/03/09 03:05:21;;;;;;;52.78;24.92;;;;;;;-5.00;100.00;90565.03;5011243;28;20029;-62
2022/03/09 03:07:46;;;;;;;58.40;24.70;;;;;;;-5.02;100.00;90560.06;5011359;28;20543;-62
2022/03/09 03:10:12;;;;;;;54.88;25.38;;;;;;;-5.03;100.00;90566.28;5011280;28;20033;-62
2022/03/09 03:12:37;;;;;;;48.50;22.98;;;;;;;-5.17;100.00;90565.69;5011130;28;20041;-62
2022/03/09 03:15:04;;;;;;;50.75;23.23;;;;;;;-5.32;100.00;90560.16;5011139;28;20136;-61
2022/03/09 03:17:29;;;;;;;46.47;22.17;;;;;;;-5.44;100.00;90546.38;5011137;28;20045;-61
2022/03/09 03:19:55;;;;;;;52.40;24.35;;;;;;;-5.34;100.00;90561.38;5011145;28;20030;-61
2022/03/09 03:22:20;;;;;;;48.85;23.52;;;;;;;-5.32;100.00;90562.75;5011056;28;20096;-62
2022/03/09 03:24:45;;;;;;;46.72;21.88;;;;;;;-5.38;100.00;90557.63;5011082;28;20022;-61
2022/03/09 03:27:11;;;;;;;48.63;22.25;;;;;;;-5.36;100.00;90553.84;5010984;28;20033;-62
2022/03/09 03:29:36;;;;;;;51.20;22.23;;;;;;;-5.33;100.00;90552.59;5011038;28;20079;-62
2022/03/09 03:32:02;;;;;;;49.90;22.50;;;;;;;-5.34;100.00;90546.63;5010976;28;20396;-62
2022/03/09 03:34:27;;;;;;;44.67;21.40;;;;;;;-5.23;100.00;90538.03;5011038;28;20034;-62
2022/03/09 03:36:53;;;;;;;55.05;24.45;;;;;;;-5.12;100.00;90544.25;5011258;28;20026;-62
2022/03/09 03:39:18;;;;;;;54.90;24.60;;;;;;;-5.00;100.00;90547.66;5010958;28;20563;-62
2022/03/09 03:41:43;;;;;;;52.35;26.05;;;;;;;-5.02;100.00;90536.72;5010726;28;20538;-61
2022/03/09 03:44:09;;;;;;;61.40;25.10;;;;;;;-5.00;100.00;90546.88;5010990;28;20056;-61
2022/03/09 03:46:35;;;;;;;54.65;25.60;;;;;;;-5.02;100.00;90544.50;5010780;28;20022;-61
2022/03/09 03:49:00;;;;;;;44.85;22.42;;;;;;;-5.02;100.00;90554.09;5010950;28;20059;-61
2022/03/09 03:51:25;;;;;;;56.72;24.73;;;;;;;-4.97;100.00;90549.00;5010727;28;20427;-62
2022/03/09 03:53:51;;;;;;;53.25;24.42;;;;;;;-4.94;100.00;90538.97;5010825;28;20091;-62
2022/03/09 03:56:16;;;;;;;49.22;23.40;;;;;;;-4.91;100.00;90540.31;5010792;28;20479;-62
2022/03/09 03:58:42;;;;;;;58.28;24.45;;;;;;;-4.85;100.00;90549.81;5010822;28;20038;-62
2022/03/09 04:01:07;;;;;;;55.35;23.92;;;;;;;-4.86;100.00;90549.03;5010714;28;20038;-62
2022/03/09 04:03:32;;;;;;;48.75;23.95;;;;;;;-4.91;100.00;90554.06;5010715;28;20022;-62
2022/03/09 04:05:58;;;;;;;49.67;22.08;;;;;;;-4.90;100.00;90554.84;5010672;28;20028;-62
2022/03/09 04:08:23;;;;;;;56.22;24.83;;;;;;;-4.88;100.00;90550.25;5010744;28;20022;-62
2022/03/09 04:10:51;;;;;;;52.30;23.88;;;;;;;-4.80;100.00;90556.91;5010991;28;20046;-62
2022/03/09 04:13:16;;;;;;;77.00;33.92;;;;;;;-4.76;100.00;90553.63;5014208;28;20030;-62
2022/03/09 04:15:41;;;;;;;49.08;22.50;;;;;;;-4.73;100.00;90552.38;5014249;28;20033;-62
2022/03/09 04:18:07;;;;;;;62.75;28.77;;;;;;;-4.76;100.00;90545.84;4996593;28;20435;-64
2022/03/09 04:20:32;;;;;;;80.97;34.33;;;;;;;-4.73;100.00;90557.56;5014329;28;20044;-64
2022/03/09 04:22:57;;;;;;;58.88;26.63;;;;;;;-4.80;100.00;90560.28;5013934;28;20385;-64
2022/03/09 04:25:23;;;;;;;50.75;23.88;;;;;;;-4.84;100.00;90553.97;5013949;28;20460;-63
2022/03/09 04:27:49;;;;;;;55.63;25.45;;;;;;;-5.04;100.00;90541.34;5014294;28;20041;-63
2022/03/09 04:30:14;;;;;;;54.00;24.88;;;;;;;-5.03;100.00;90561.09;4996347;28;20164;-63
2022/03/09 04:32:40;;;;;;;59.10;26.25;;;;;;;-5.07;100.00;90556.56;5013723;28;20033;-63
2022/03/09 04:35:06;;;;;;;57.47;26.40;;;;;;;-5.19;100.00;90553.97;5013838;28;20208;-64
2022/03/09 04:37:33;;;;;;;57.75;26.08;;;;;;;-5.33;100.00;90561.16;5013714;28;20022;-63
2022/03/09 04:39:59;;;;;;;50.88;24.02;;;;;;;-5.29;100.00;90559.69;5013702;28;20536;-63
2022/03/09 04:42:26;;;;;;;56.90;26.05;;;;;;;-5.24;100.00;90557.22;5013396;28;20054;-64
2022/03/09 04:44:53;;;;;;;50.20;24.17;;;;;;;-5.17;100.00;90567.50;5013855;28;20087;-63
2022/03/09 04:47:18;;;;;;;44.38;20.70;;;;;;;-5.10;100.00;90567.38;5013603;28;20038;-62
2022/03/09 04:49:43;;;;;;;54.45;24.33;;;;;;;-5.00;100.00;90568.41;5013452;28;20037;-63
2022/03/09 04:52:09;;;;;;;40.60;20.13;;;;;;;-5.02;100.00;90574.84;5013405;28;20025;-62
2022/03/09 04:54:34;;;;;;;43.13;19.77;;;;;;;-5.02;100.00;90569.66;5013410;28;20057;-63
2022/03/09 04:57:00;;;;;;;54.63;25.58;;;;;;;-4.99;100.00;90582.16;5013324;28;20521;-62
2022/03/09 04:59:25;;;;;;;86.28;37.17;;;;;;;-4.93;100.00;90573.47;5013043;28;20084;-62
2022/03/09 05:01:51;;;;;;;39.33;19.55;;;;;;;-4.87;100.00;90577.78;5012827;28;20270;-62
2022/03/09 05:04:17;;;;;;;46.50;21.95;;;;;;;-4.87;100.00;90575.97;5013132;28;20079;-62
2022/03/09 05:06:42;;;;;;;49.80;23.70;;;;;;;-4.89;100.00;90574.59;5013134;28;20026;-63
2022/03/09 05:09:07;;;;;;;67.88;30.13;;;;;;;-4.82;100.00;90581.28;5013126;28;20423;-63
2022/03/09 05:11:33;;;;;;;53.97;24.95;;;;;;;-4.85;100.00;90589.50;5012885;28;20030;-62
2022/03/09 05:13:58;;;;;;;58.13;26.60;;;;;;;-4.82;100.00;90591.66;4998907;28;20035;-63
2022/03/09 05:16:24;;;;;;;71.28;34.95;;;;;;;-4.79;100.00;90590.41;4993223;28;20048;-63
2022/03/09 05:18:49;;;;;;;49.13;23.77;;;;;;;-4.78;100.00;90599.75;4992678;28;20043;-63
2022/03/09 05:21:15;;;;;;;42.85;19.17;;;;;;;-4.64;100.00;90608.91;4993140;28;20062;-62
2022/03/09 05:23:40;;;;;;;37.00;19.55;;;;;;;-4.61;100.00;90603.25;4991900;28;20045;-62
2022/03/09 05:26:06;;;;;;;48.78;23.77;;;;;;;-4.59;100.00;90603.81;4992984;28;20465;-62
2022/03/09 05:28:31;;;;;;;37.42;18.10;;;;;;;-4.51;100.00;90613.09;4993041;28;20108;-62
2022/03/09 05:30:56;;;;;;;52.30;24.98;;;;;;;-4.65;100.00;90612.53;4992885;28;20118;-63
2022/03/09 05:33:22;;;;;;;47.90;21.90;;;;;;;-4.44;100.00;90612.97;4992592;28;20100;-62
2022/03/09 05:35:47;;;;;;;57.47;28.15;;;;;;;-4.32;100.00;90619.72;4993244;28;20033;-64
2022/03/09 05:38:14;;;;;;;45.45;22.95;;;;;;;-4.08;100.00;90620.50;4992838;28;20034;-63
2022/03/09 05:40:40;;;;;;;40.33;19.27;;;;;;;-4.12;100.00;90623.75;4992770;28;20026;-63
2022/03/09 05:43:05;;;;;;;47.75;21.38;;;;;;;-4.11;100.00;90607.16;4992399;28;20568;-63
2022/03/09 05:45:31;;;;;;;48.28;24.38;;;;;;;-4.11;100.00;90627.94;4992678;28;20117;-63
2022/03/09 05:47:56;;;;;;;41.75;21.63;;;;;;;-3.98;100.00;90623.28;4992302;28;20109;-63
2022/03/09 05:50:22;;;;;;;43.72;20.83;;;;;;;-4.15;100.00;90622.41;4992545;28;20113;-63
2022/03/09 05:52:47;;;;;;;47.05;21.58;;;;;;;-4.21;100.00;90605.16;4992618;28;20507;-66
2022/03/09 05:55:13;;;;;;;47.28;25.30;;;;;;;-3.89;100.00;90630.72;4992584;28;20030;-65
2022/03/09 05:57:38;;;;;;;63.15;30.35;;;;;;;-3.52;100.00;90624.16;4992514;28;20034;-65
2022/03/09 06:00:06;;;;;;;37.10;18.55;;;;;;;-3.23;100.00;90624.16;4992455;28;20034;-66
2022/03/09 06:02:32;;;;;;;42.40;20.20;;;;;;;-3.26;100.00;90624.63;4992007;28;20037;-65
2022/03/09 06:04:57;;;;;;;55.58;26.65;;;;;;;-3.01;100.00;90632.88;4992260;28;20034;-66
2022/03/09 06:07:23;;;;;;;49.97;23.85;;;;;;;-2.89;100.00;90636.19;4992192;28;20093;-67
2022/03/09 06:09:49;;;;;;;44.55;21.17;;;;;;;-2.76;100.00;90638.50;4992243;28;20030;-66
2022/03/09 06:12:15;;;;;;;44.50;20.65;;;;;;;-2.72;100.00;90623.19;4992130;28;20105;-65
2022/03/09 06:14:41;;;;;;;35.42;19.20;;;;;;;-2.83;100.00;90637.09;4992121;28;20523;-66
2022/03/09 06:17:06;;;;;;;62.63;24.67;;;;;;;-2.97;100.00;90634.00;4991670;28;20026;-66
2022/03/09 06:19:32;;;;;;;50.53;23.80;;;;;;;-2.88;100.00;90635.19;4992066;28;20030;-66
2022/03/09 06:21:57;;;;;;;39.85;20.23;;;;;;;-2.63;100.00;90641.81;4992040;28;20108;-67
2022/03/09 06:24:23;;;;;;;56.97;24.48;;;;;;;-2.45;100.00;90638.97;4991978;28;20030;-67
2022/03/09 06:26:49;;;;;;;41.50;21.65;;;;;;;-2.28;100.00;90642.34;4991907;28;20037;-67
2022/03/09 06:29:14;;;;;;;41.50;19.15;;;;;;;-2.04;100.00;90636.97;4991959;28;20467;-67
2022/03/09 06:31:42;;;;;;;85.07;32.08;;;;;;;-2.19;100.00;90640.94;4991369;28;20443;-66
2022/03/09 06:34:08;;;;;;;63.97;26.83;;;;;;;-1.98;100.00;90638.59;4974288;28;20400;-68
2022/03/09 06:36:33;;;;;;;43.72;19.60;;;;;;;-1.86;100.00;90639.28;4991786;28;20026;-67
2022/03/09 06:39:00;;;;;;;43.70;22.60;;;;;;;-1.63;99.74;90638.25;4991819;28;20054;-66
2022/03/09 06:41:25;;;;;;;34.20;17.77;;;;;;;-1.17;94.91;90647.41;4991706;28;20423;-67
2022/03/09 06:43:51;;;;;;;59.42;26.73;;;;;;;-1.03;90.86;90643.38;4991802;28;20432;-68
2022/03/09 06:46:17;;;;;;;46.20;21.98;;;;;;;-1.25;90.28;90648.63;4973642;28;20061;-67
2022/03/09 06:48:43;;;;;;;39.22;19.20;;;;;;;-0.92;88.30;90652.09;4991738;28;20128;-68
2022/03/09 06:51:08;;;;;;;45.88;23.40;;;;;;;-0.77;87.31;90656.69;4991574;28;20136;-68
2022/03/09 06:53:34;;;;;;;36.78;19.08;;;;;;;-0.62;83.94;90651.59;5012471;28;20553;-68
2022/03/09 06:55:59;;;;;;;35.20;16.83;;;;;;;-0.64;82.63;90656.25;5030867;28;20071;-67
2022/03/09 06:58:24;;;;;;;33.60;17.80;;;;;;;-0.44;80.51;90656.44;5030825;28;20045;-68
2022/03/09 07:00:50;;;;;;;40.83;21.20;;;;;;;-0.05;80.06;90653.59;5030626;28;20029;-68
2022/03/09 07:03:16;;;;;;;38.55;20.02;;;;;;;0.67;76.77;90658.19;5030633;28;20041;-68
2022/03/09 07:05:41;;;;;;;42.38;22.02;;;;;;;0.96;75.03;90653.31;5030702;28;20139;-66
2022/03/09 07:08:07;;;;;;;35.30;19.30;;;;;;;1.85;71.25;90654.75;5030697;28;20116;-65
2022/03/09 07:10:32;;;;;;;37.88;19.85;;;;;;;3.04;66.58;90647.13;5030814;28;20507;-64
2022/03/09 07:12:58;;;;;;;25.58;15.45;;;;;;;5.78;60.26;90648.25;5030657;28;20044;-64
2022/03/09 07:15:23;;;;;;;28.10;17.70;;;;;;;7.57;50.55;90638.78;5030483;28;20095;-65
2022/03/09 07:17:49;;;;;;;31.20;19.85;;;;;;;9.11;47.20;90640.19;5030133;28;20044;-64
2022/03/09 07:20:16;;;;;;;26.48;18.05;;;;;;;8.08;47.37;90639.25;5030549;28;20120;-65
2022/03/09 07:22:43;;;;;;;25.35;16.45;;;;;;;10.04;44.68;90639.94;5030546;28;20044;-65
2022/03/09 07:25:10;;;;;;;27.08;16.38;;;;;;;10.97;40.96;90639.44;5030514;28;20091;-66
2022/03/09 07:27:36;;;;;;;26.67;17.38;;;;;;;11.74;39.39;90648.22;5012639;28;20041;-66
2022/03/09 07:30:03;;;;;;;20.98;14.80;;;;;;;12.68;36.43;90648.69;5030470;28;20042;-67
2022/03/09 07:32:28;;;;;;;20.58;14.57;;;;;;;12.77;36.26;90647.47;5029858;28;20034;-64
2022/03/09 07:34:54;;;;;;;25.33;16.13;;;;;;;11.84;36.61;90655.88;5030287;28;20037;-64
2022/03/09 07:37:19;;;;;;;49.63;33.45;;;;;;;13.82;34.87;90657.84;5030365;28;20041;-65
2022/03/09 07:39:45;;;;;;;23.17;16.20;;;;;;;12.33;35.30;90648.97;5030239;28;20052;-64
2022/03/09 07:42:10;;;;;;;26.83;17.92;;;;;;;11.88;36.05;90646.13;5012446;28;20530;-65
2022/03/09 07:44:36;;;;;;;26.13;17.80;;;;;;;11.96;36.42;90648.72;5030551;28;20047;-65
2022/03/09 07:47:02;;;;;;;109.40;69.40;;;;;;;12.49;35.76;90651.81;5032612;28;20029;-65
2022/03/09 07:49:27;;;;;;;25.27;17.30;;;;;;;10.31;38.62;90644.22;5034182;28;20041;-64
2022/03/09 07:51:53;;;;;;;25.75;16.83;;;;;;;9.25;39.98;90649.63;5034231;28;20045;-65
2022/03/09 07:54:18;;;;;;;28.60;19.50;;;;;;;11.20;37.91;90645.28;5034241;28;20451;-65
2022/03/09 07:56:44;;;;;;;23.95;16.25;;;;;;;13.01;34.71;90643.34;5034230;28;20048;-65
2022/03/09 07:59:11;;;;;;;29.85;19.00;;;;;;;12.47;34.66;90651.38;5034126;28;20037;-65
2022/03/09 08:01:37;;;;;;;27.02;18.33;;;;;;;13.21;34.42;90653.22;5033874;28;20488;-65
2022/03/09 08:04:03;;;;;;;24.23;16.42;;;;;;;12.89;34.37;90658.22;5033905;28;20107;-65
2022/03/09 08:06:29;;;;;;;28.35;18.55;;;;;;;14.77;32.76;90649.25;5033901;28;20033;-65
2022/03/09 08:08:54;;;;;;;26.23;18.40;;;;;;;15.84;31.53;90654.72;5033902;28;20124;-65
2022/03/09 08:11:20;;;;;;;20.30;16.50;;;;;;;14.20;32.20;90644.09;5033754;28;20457;-65
2022/03/09 08:13:45;;;;;;;24.63;15.90;;;;;;;14.53;33.15;90644.75;5033865;28;20461;-65
2022/03/09 08:16:10;;;;;;;22.38;16.27;;;;;;;12.12;34.90;90646.28;5033668;28;20041;-65
2022/03/09 08:18:37;;;;;;;22.45;15.57;;;;;;;11.66;34.64;90641.81;5033894;28;20459;-65
2022/03/09 08:21:02;;;;;;;29.25;19.40;;;;;;;10.02;37.12;90645.56;5033710;28;20042;-65
2022/03/09 08:23:28;;;;;;;33.88;23.83;;;;;;;9.68;36.89;90643.66;5033733;28;20095;-65
2022/03/09 08:25:54;;;;;;;34.78;20.58;;;;;;;7.03;40.65;90641.19;5033664;28;20030;-65
2022/03/09 08:28:19;;;;;;;21.80;14.88;;;;;;;6.47;40.46;90642.19;5033941;28;20422;-65
2022/03/09 08:30:45;;;;;;;27.10;15.10;;;;;;;6.36;40.49;90645.28;5033562;28;20086;-65
2022/03/09 08:33:11;;;;;;;18.67;12.52;;;;;;;9.04;37.68;90645.94;5033537;28;20694;-65
2022/03/09 08:35:37;;;;;;;20.45;14.10;;;;;;;9.41;36.40;90649.19;5033477;28;20040;-65
2022/03/09 08:38:02;;;;;;;19.00;13.73;;;;;;;10.23;35.80;90637.78;5033381;28;20034;-65
2022/03/09 08:40:28;;;;;;;25.67;18.02;;;;;;;10.12;35.23;90636.53;5033336;28;20120;-65
2022/03/09 08:42:54;;;;;;;23.10;15.43;;;;;;;10.48;35.08;90642.34;5033011;28;20183;-65
2022/03/09 08:45:19;;;;;;;21.30;14.93;;;;;;;9.08;37.14;90636.28;5033072;28;20507;-65
2022/03/09 08:47:44;;;;;;;21.52;14.75;;;;;;;5.35;42.76;90638.53;5033443;28;20052;-65
2022/03/09 08:50:10;;;;;;;34.80;20.17;;;;;;;4.27;46.53;90645.28;5015476;28;20573;-64
2022/03/09 08:52:36;;;;;;;19.02;12.95;;;;;;;4.69;46.08;90638.53;5033178;28;20029;-65
2022/03/09 08:55:03;;;;;;;19.80;13.02;;;;;;;4.87;45.13;90637.78;5033162;28;20083;-64
2022/03/09 08:57:29;;;;;;;25.23;14.88;;;;;;;4.87;45.69;90635.16;5032665;28;20498;-65
2022/03/09 08:59:57;;;;;;;20.17;12.80;;;;;;;5.04;44.66;90635.50;5033002;28;20053;-65
2022/03/09 09:02:23;;;;;;;20.15;13.52;;;;;;;6.28;43.37;90623.72;5032992;28;20069;-65
2022/03/09 09:04:48;;;;;;;22.13;15.48;;;;;;;7.42;43.03;90624.03;5033037;28;20545;-65
2022/03/09 09:07:14;;;;;;;22.45;15.10;;;;;;;8.22;40.97;90620.66;5032872;28;20130;-65
2022/03/09 09:09:39;;;;;;;18.10;12.48;;;;;;;8.79;38.64;90622.72;5033193;28;20481;-65
2022/03/09 09:12:05;;;;;;;23.70;15.68;;;;;;;7.36;40.20;90620.69;5032856;28;20116;-65
2022/03/09 09:14:30;;;;;;;26.30;17.35;;;;;;;8.53;41.88;90625.25;5032867;28;20450;-64
2022/03/09 09:16:56;;;;;;;24.70;17.17;;;;;;;7.90;41.51;90624.31;5032725;28;20041;-65
2022/03/09 09:19:21;;;;;;;33.90;20.88;;;;;;;7.92;42.20;90619.50;5032618;28;20037;-65
2022/03/09 09:21:47;;;;;;;22.15;14.05;;;;;;;8.16;40.81;90616.53;5032471;28;20496;-65
2022/03/09 09:24:13;;;;;;;20.73;13.77;;;;;;;8.96;39.59;90623.59;5032405;28;20045;-65
2022/03/09 09:26:39;;;;;;;23.33;14.77;;;;;;;8.31;38.72;90608.22;5032496;28;20029;-65
2022/03/09 09:29:06;;;;;;;19.73;13.38;;;;;;;10.88;36.04;90620.03;5032604;28;20041;-65
2022/03/09 09:31:32;;;;;;;19.40;13.98;;;;;;;11.74;35.26;90629.56;5032392;28;20037;-65
2022/03/09 09:33:57;;;;;;;27.80;18.92;;;;;;;12.11;34.36;90612.72;5032099;28;20042;-65
2022/03/09 09:36:23;;;;;;;19.90;13.75;;;;;;;10.66;37.39;90613.81;5032271;28;20033;-65
2022/03/09 09:38:49;;;;;;;20.90;14.20;;;;;;;9.58;37.51;90615.50;5032315;28;20029;-65
2022/03/09 09:41:18;;;;;;;27.63;18.70;;;;;;;8.24;39.90;90625.66;5031766;28;20029;-67
2022/03/09 09:44:02;;;;;;;27.17;17.70;;;;;;;8.38;40.54;90613.94;4991991;28;20038;-65
2022/03/09 09:46:27;;;;;;;25.63;17.13;;;;;;;8.16;42.56;90618.41;4992837;28;20026;-64
2022/03/09 09:48:53;;;;;;;23.38;15.38;;;;;;;8.48;39.53;90618.19;4992608;28;20047;-65
2022/03/09 09:51:18;;;;;;;22.48;14.60;;;;;;;8.97;38.93;90613.75;4992556;28;20042;-65
2022/03/09 09:53:45;;;;;;;21.05;13.15;;;;;;;9.67;37.70;90620.84;4992602;28;20034;-65
2022/03/09 09:56:15;;;;;;;24.33;15.40;;;;;;;8.58;40.48;90620.59;4986432;28;20499;-66
2022/03/09 09:58:42;;;;;;;34.50;22.83;;;;;;;9.40;39.52;90616.56;4972513;28;20059;-66
2022/03/09 10:01:08;;;;;;;25.98;16.63;;;;;;;10.72;36.17;90614.44;4972425;28;20049;-66
2022/03/09 10:03:34;;;;;;;19.17;13.30;;;;;;;11.17;35.19;90614.00;4972907;28;20530;-66
2022/03/09 10:06:00;;;;;;;127.95;70.20;;;;;;;10.95;35.47;90620.34;4972721;28;20058;-66
2022/03/09 10:08:25;;;;;;;50.38;28.92;;;;;;;11.09;35.60;90618.25;4972420;28;20043;-65
2022/03/09 10:10:58;;;;;;;27.52;18.73;;;;;;;11.27;35.13;90617.09;4972275;28;20563;-65
2022/03/09 10:13:43;;;;;;;18.27;13.48;;;;;;;10.96;34.88;90612.03;4972461;28;20042;-65
2022/03/09 10:16:20;;;;;;;17.90;13.73;;;;;;;9.50;37.91;90610.19;4972458;28;20405;-65
2022/03/09 10:18:48;;;;;;;54.80;33.85;;;;;;;8.74;37.65;90612.25;4972641;28;20061;-67
2022/03/09 10:21:19;;;;;;;28.42;19.00;;;;;;;9.83;37.47;90613.22;4972544;28;20043;-63
2022/03/09 10:24:06;;;;;;;35.88;27.63;;;;;;;10.00;36.41;90612.44;4972560;28;20035;-65
2022/03/09 10:26:34;;;;;;;27.20;18.58;;;;;;;10.27;38.02;90617.50;4972450;28;20484;-64
2022/03/09 10:29:08;;;;;;;24.92;14.88;;;;;;;8.09;41.74;90611.69;4972249;28;20045;-65
2022/03/09 10:31:37;;;;;;;22.35;14.85;;;;;;;8.08;40.94;90607.47;4972297;28;20492;-67
2022/03/09 10:34:04;;;;;;;16.30;11.85;;;;;;;7.49;42.29;90606.66;4971189;28;20043;-65
2022/03/09 10:36:29;;;;;;;19.58;13.13;;;;;;;8.26;41.84;90604.94;4972360;28;20046;-63
2022/03/09 10:39:10;;;;;;;36.33;23.13;;;;;;;10.08;38.51;90603.69;4972229;28;20518;-63
2022/03/09 10:41:35;;;;;;;21.83;15.07;;;;;;;6.99;43.98;90599.75;4972788;28;20083;-72
2022/03/09 10:44:00;;;;;;;91.22;45.53;;;;;;;6.46;44.92;90593.03;4991355;28;20531;-74
2022/03/09 10:46:26;;;;;;;19.02;13.55;;;;;;;6.15;45.96;90592.78;4991413;28;20071;-72
2022/03/09 10:49:00;;;;;;;18.85;13.13;;;;;;;6.37;45.31;90591.38;4991554;28;20038;-70
2022/03/09 10:51:49;;;;;;;75.45;38.95;;;;;;;5.80;45.73;90594.09;4991478;28;20113;-73
2022/03/09 10:54:27;;;;;;;19.00;13.35;;;;;;;6.15;43.36;90590.13;4991702;28;20145;-72
2022/03/09 10:57:06;;;;;;;23.17;12.82;;;;;;;5.71;46.88;90578.16;4991242;28;20042;-71
2022/03/09 10:59:47;;;;;;;19.35;11.23;;;;;;;6.36;44.18;90581.88;4990978;28;20120;-73
2022/03/09 11:02:15;;;;;;;18.55;12.00;;;;;;;6.25;42.40;90573.34;4991249;28;20041;-75
2022/03/09 11:04:41;;;;;;;19.50;13.25;;;;;;;7.09;43.06;90573.09;4991635;28;20042;-69
2022/03/09 11:07:09;;;;;;;17.23;12.48;;;;;;;8.65;41.56;90580.38;4991323;28;20034;-74
2022/03/09 11:09:37;;;;;;;16.88;13.05;;;;;;;10.62;39.38;90574.88;4991242;28;20531;-73
2022/03/09 11:12:03;;;;;;;14.40;9.98;;;;;;;9.56;38.93;90571.78;4991161;28;20117;-74